M I D A S
Marine Information and Data Acquisition System
Tripno 2024 of the Zeeleeuw from 2010-11-10 07:51:26 to 2010-11-10 16:08:12
Back to CruiseResearch ActivitiesStationsMapUnderway DataData graphs

EquipmentUnitsComment
TimeDGPSUTC
LatitudeDGPSDM.mWGS84
LongitudeDGPSDM.mWGS84
HeadingGyrodeg 
SOGDGPSknotsSpeed over ground
COGDGPSdegCourse over ground
DepthEcho soundermeters200 kHz
Missing or incorrect values are displayed as -999
Navigation data collected by the RV Zeeleeuw from 2010-11-10 07:48:18 to 2010-11-10 16:16:22
Time Latitude Longitude Heading SOG COG Depth
2010-11-10 07:49:26 51°13.679 2°55.871 105.5 4.3 287 -999
2010-11-10 07:50:26 51°13.702 2°55.769 111.9 3.4 292 -999
2010-11-10 07:51:26 51°13.718 2°55.732 137.4 3.9 317 -999
2010-11-10 07:52:26 51°13.797 2°55.653 157.3 6.6 336 -999
2010-11-10 07:53:26 51°13.901 2°55.634 191.8 5.1 8 -999
2010-11-10 07:54:26 51°13.946 2°55.667 229.4 0.6 36 4.8
2010-11-10 07:55:26 51°13.949 2°55.622 294 2.7 295 -999
2010-11-10 07:56:25 51°14.022 2°55.538 328.8 7.9 329 9.2
2010-11-10 07:57:26 51°14.155 2°55.413 329.7 9.9 328 -999
2010-11-10 07:58:26 51°14.296 2°55.252 324.9 10.7 325 9.4
2010-11-10 07:59:24 51°14.438 2°55.089 325.7 11.2 323 8.6
2010-11-10 08:00:24 51°14.58 2°54.886 321.5 12.3 313 10.7
2010-11-10 08:01:23 51°14.733 2°54.681 325.2 12.3 320 11.8
2010-11-10 08:02:23 51°14.89 2°54.466 326.1 12.6 321 10.3
2010-11-10 08:03:23 51°15.028 2°54.23 312.7 11.7 303 -999
2010-11-10 08:04:23 51°15.153 2°53.967 316.1 12.8 310 8.6
2010-11-10 08:05:23 51°15.296 2°53.73 322.3 12.2 314 8.4
2010-11-10 08:06:22 51°15.437 2°53.507 322.2 12.3 317 9.8
2010-11-10 08:07:23 51°15.607 2°53.334 340.5 11.4 332 10.8
2010-11-10 08:08:23 51°15.775 2°53.201 342.2 11.9 335 10.3
2010-11-10 08:09:23 51°15.952 2°53.065 342.8 11.9 334 11.4
2010-11-10 08:10:23 51°16.127 2°52.925 341.2 11.3 333 10.5
2010-11-10 08:11:23 51°16.306 2°52.794 346.1 12 337 11.6
2010-11-10 08:12:23 51°16.487 2°52.682 348.2 11.8 341 10.1
2010-11-10 08:13:23 51°16.669 2°52.596 350.7 10.8 344 10.6
2010-11-10 08:14:23 51°16.854 2°52.522 350.6 11.7 347 9.8
2010-11-10 08:15:23 51°17.044 2°52.446 349.5 11.4 347 -999
2010-11-10 08:16:23 51°17.232 2°52.402 0.2 11.5 354 9.4
2010-11-10 08:17:23 51°17.425 2°52.383 1.4 11.7 358 10.2
2010-11-10 08:18:23 51°17.614 2°52.418 12.4 11.4 7 9.5
2010-11-10 08:19:23 51°17.792 2°52.454 11.6 10.7 5 10.1
2010-11-10 08:20:23 51°17.972 2°52.486 10.9 11.3 5 10.3
2010-11-10 08:21:23 51°18.154 2°52.517 12.6 10.8 7 9.8
2010-11-10 08:22:22 51°18.322 2°52.602 27.8 11.2 27 11
2010-11-10 08:23:23 51°18.432 2°52.824 57.6 10.9 56 10
2010-11-10 08:24:23 51°18.523 2°53.069 57.8 10.4 59 11.1
2010-11-10 08:25:23 51°18.613 2°53.312 58.6 10.6 59 9.8
2010-11-10 08:26:23 51°18.697 2°53.557 59.6 10.7 65 10.9
2010-11-10 08:27:23 51°18.777 2°53.806 62.2 10.6 63 10.9
2010-11-10 08:28:23 51°18.859 2°54.053 59.3 10.3 64 11.6
2010-11-10 08:29:23 51°18.94 2°54.297 58.3 10.3 62 11
2010-11-10 08:30:23 51°19.022 2°54.542 63.7 10.2 63 11.1
2010-11-10 08:31:23 51°19.101 2°54.791 61.1 10.5 68 10.8
2010-11-10 08:32:23 51°19.186 2°55.038 60.5 10.7 61 10.5
2010-11-10 08:33:23 51°19.268 2°55.282 61.1 10.3 63 11.1
2010-11-10 08:34:22 51°19.35 2°55.521 60.4 10.4 56 10.2
2010-11-10 08:35:22 51°19.428 2°55.773 64.9 10.5 67 10.6
2010-11-10 08:36:22 51°19.489 2°56.04 68 10.7 73 10
2010-11-10 08:37:22 51°19.551 2°56.309 66.9 10.7 71 10.7
2010-11-10 08:38:23 51°19.615 2°56.576 66 10.5 74 10.5
2010-11-10 08:39:22 51°19.679 2°56.832 65.8 10.7 73 11.4
2010-11-10 08:40:22 51°19.742 2°57.097 66.8 10.6 67 10.8
2010-11-10 08:41:22 51°19.809 2°57.355 61.3 10.5 60 10
2010-11-10 08:42:22 51°19.875 2°57.614 62.7 10.6 62 10.4
2010-11-10 08:43:22 51°19.935 2°57.876 69.2 10.4 70 9.5
2010-11-10 08:44:22 51°20 2°58.132 64.8 10.5 69 9.7
2010-11-10 08:45:22 51°20.061 2°58.398 66.9 10.5 67 9.6
2010-11-10 08:46:22 51°20.123 2°58.66 64.3 10.5 71 10.1
2010-11-10 08:47:23 51°20.185 2°58.93 68.3 10.8 69 10
2010-11-10 08:48:22 51°20.25 2°59.187 65.8 10.5 71 9.6
2010-11-10 08:49:22 51°20.317 2°59.449 69 10.6 68 9.4
2010-11-10 08:50:22 51°20.381 2°59.709 67 10.5 74 9.2
2010-11-10 08:51:22 51°20.45 2°59.967 63.1 10 65 8.7
2010-11-10 08:52:22 51°20.518 3°0.222 66.1 10.5 64 9.6
2010-11-10 08:53:22 51°20.583 3°0.485 65.5 10.3 65 9.2
2010-11-10 08:54:22 51°20.647 3°0.747 66.5 10.4 63 9.2
2010-11-10 08:55:22 51°20.709 3°1.006 70.7 10.4 61 9.8
2010-11-10 08:56:23 51°20.782 3°1.259 64.7 10.5 62 9.3
2010-11-10 08:57:23 51°20.843 3°1.519 68.9 10.5 70 9.1
2010-11-10 08:58:22 51°20.902 3°1.778 65.6 10.3 74 9.2
2010-11-10 08:59:23 51°20.968 3°2.043 68.1 10.5 67 9.3
2010-11-10 09:00:22 51°21.029 3°2.307 67 10.7 78 9.3
2010-11-10 09:01:22 51°21.096 3°2.574 67.7 10.9 72 10
2010-11-10 09:02:22 51°21.165 3°2.839 68 10.8 65 9
2010-11-10 09:03:22 51°21.236 3°3.106 66.2 10.9 68 10.3
2010-11-10 09:04:22 51°21.304 3°3.374 65.4 10.6 67 10
2010-11-10 09:05:23 51°21.373 3°3.647 65.1 10.8 67 10.1
2010-11-10 09:06:23 51°21.435 3°3.919 69 10.9 70 9.7
2010-11-10 09:07:22 51°21.493 3°4.191 69 11 72 10.3
2010-11-10 09:08:23 51°21.555 3°4.472 68.4 11.2 72 10.4
2010-11-10 09:09:22 51°21.613 3°4.744 66.9 10.8 76 10.4
2010-11-10 09:10:22 51°21.675 3°5.022 66.9 10.9 74 10.3
2010-11-10 09:11:22 51°21.732 3°5.296 74.1 10.8 74 10.3
2010-11-10 09:12:22 51°21.787 3°5.568 70.1 10.8 65 10.6
2010-11-10 09:13:22 51°21.839 3°5.838 70.2 10.8 71 10.5
2010-11-10 09:14:23 51°21.896 3°6.111 70.9 10.7 78 10.8
2010-11-10 09:15:23 51°21.952 3°6.379 66.6 10.5 72 10.7
2010-11-10 09:16:22 51°22.011 3°6.645 71.7 10.6 72 10.8
2010-11-10 09:17:23 51°22.068 3°6.919 69.7 10.7 76 11.1
2010-11-10 09:18:22 51°22.094 3°7.199 82.2 10.9 80 11
2010-11-10 09:19:22 51°22.107 3°7.494 81.4 10.9 85 11.2
2010-11-10 09:20:22 51°22.118 3°7.782 82.1 10.6 86 11.1
2010-11-10 09:21:22 51°22.131 3°8.07 83.3 10.8 82 11.4
2010-11-10 09:22:22 51°22.154 3°8.358 78.4 11.3 86 12.2
2010-11-10 09:23:23 51°22.173 3°8.657 81.5 11.4 79 11.4
2010-11-10 09:24:22 51°22.2 3°8.937 79.6 10.9 85 11.9
2010-11-10 09:25:22 51°22.23 3°9.216 77.6 10.4 83 12.3
2010-11-10 09:26:23 51°22.259 3°9.498 76.3 10.5 80 12
2010-11-10 09:27:22 51°22.285 3°9.773 80.1 10.8 84 12.5
2010-11-10 09:28:22 51°22.307 3°10.054 78.5 10.6 82 13.4
2010-11-10 09:29:22 51°22.328 3°10.304 80.3 8 84 14.1
2010-11-10 09:30:23 51°22.339 3°10.487 79.2 6.5 85 17.4
2010-11-10 09:31:22 51°22.349 3°10.652 78 6.3 88 17.8
2010-11-10 09:32:22 51°22.376 3°10.807 66.1 6.1 71 15.5
2010-11-10 09:33:23 51°22.425 3°10.98 66.9 7.7 68 15.2
2010-11-10 09:34:22 51°22.457 3°11.136 69.4 4.5 82 15.1
2010-11-10 09:35:22 51°22.465 3°11.206 70.5 1.6 82 14.8
2010-11-10 09:36:22 51°22.459 3°11.224 75 0.5 177 15.4
2010-11-10 09:37:22 51°22.448 3°11.219 73.3 0.8 197 14.7
2010-11-10 09:38:22 51°22.435 3°11.205 71.7 0.9 229 14.5
2010-11-10 09:39:22 51°22.422 3°11.19 68.3 1.1 209 15.6
2010-11-10 09:40:22 51°22.407 3°11.173 74.5 1 223 14.8
2010-11-10 09:41:23 51°22.39 3°11.158 77 1.1 207 15.5
2010-11-10 09:42:22 51°22.374 3°11.143 80 1 226 15.1
2010-11-10 09:43:22 51°22.367 3°11.166 68.3 2.9 60 14.9
2010-11-10 09:44:23 51°22.378 3°11.218 62.3 1.2 100 16
2010-11-10 09:45:22 51°22.376 3°11.231 65.2 0.7 160 15.6
2010-11-10 09:46:22 51°22.366 3°11.222 65.3 0.9 234 14.8
2010-11-10 09:47:22 51°22.35 3°11.2 73.4 1.5 212 15.8
2010-11-10 09:48:22 51°22.332 3°11.178 78.2 1.4 223 15.6
2010-11-10 09:49:22 51°22.315 3°11.157 80.2 0.7 185 15.7
2010-11-10 09:50:22 51°22.315 3°11.19 61.9 2.6 65 15.6
2010-11-10 09:51:23 51°22.353 3°11.296 60.4 6.1 63 15.8
2010-11-10 09:52:22 51°22.406 3°11.466 65.2 9.1 69 15.8
2010-11-10 09:53:22 51°22.494 3°11.716 57.5 11.5 54 14.4
2010-11-10 09:54:22 51°22.614 3°11.957 49 11.6 46 13.1
2010-11-10 09:55:22 51°22.747 3°12.176 47.3 11.3 48 13.1
2010-11-10 09:56:22 51°22.876 3°12.4 47.3 11.5 50 12.4
2010-11-10 09:57:22 51°23.004 3°12.625 50.2 11.5 45 11.3
2010-11-10 09:58:23 51°23.133 3°12.847 51.6 11.1 48 11
2010-11-10 09:59:22 51°23.256 3°13.064 48.7 11.2 42 10.3
2010-11-10 10:00:22 51°23.382 3°13.285 47.8 11.2 49 10.8
2010-11-10 10:01:22 51°23.508 3°13.514 50 11.3 53 10.2
2010-11-10 10:02:23 51°23.63 3°13.748 50.3 11.3 50 11.4
2010-11-10 10:03:22 51°23.757 3°13.96 42.8 11.2 41 10.6
2010-11-10 10:04:22 51°23.905 3°14.147 41.3 11.3 33 9.6
2010-11-10 10:05:23 51°24.083 3°14.256 19.8 11.4 14 10.4
2010-11-10 10:06:22 51°24.271 3°14.283 1.2 9.9 355 -999
2010-11-10 10:07:22 51°24.342 3°14.339 78 3.3 89 15.2
2010-11-10 10:08:22 51°24.29 3°14.376 166 4.8 191 14.3
2010-11-10 10:09:23 51°24.207 3°14.316 195.9 5.7 205 13.6
2010-11-10 10:10:23 51°24.146 3°14.233 219.4 4.3 223 13.5
2010-11-10 10:11:23 51°24.108 3°14.143 240 3.7 242 12.5
2010-11-10 10:12:22 51°24.086 3°14.059 259.9 3.2 250 13
2010-11-10 10:13:22 51°24.072 3°13.977 275.9 3.5 255 13.1
2010-11-10 10:14:22 51°24.066 3°13.883 286.1 3.4 270 11.9
2010-11-10 10:15:23 51°24.065 3°13.789 297.1 3.3 273 12.3
2010-11-10 10:16:23 51°24.069 3°13.701 298.4 2.9 272 12
2010-11-10 10:17:22 51°24.068 3°13.613 292.2 3.5 272 12.4
2010-11-10 10:18:23 51°24.072 3°13.512 295.5 3.9 276 12.5
2010-11-10 10:19:22 51°24.076 3°13.415 289 3.9 270 13
2010-11-10 10:20:22 51°24.071 3°13.317 279.5 3.8 260 13.1
2010-11-10 10:21:22 51°24.061 3°13.216 272.4 4 265 12.4
2010-11-10 10:22:22 51°24.052 3°13.102 272.4 4.5 263 12.5
2010-11-10 10:23:23 51°24.042 3°12.987 272.3 4 262 13
2010-11-10 10:24:23 51°24.031 3°12.89 273.3 3.6 264 13.1
2010-11-10 10:25:22 51°24.021 3°12.802 274.4 3.6 253 14
2010-11-10 10:26:22 51°24.01 3°12.714 276.6 3.2 260 13.8
2010-11-10 10:27:22 51°23.998 3°12.626 275.6 3.4 258 12.4
2010-11-10 10:28:23 51°23.983 3°12.541 271.4 3 264 12.4
2010-11-10 10:29:23 51°23.97 3°12.456 275 3.4 258 13.1
2010-11-10 10:30:23 51°23.958 3°12.37 274.3 3.3 257 13.2
2010-11-10 10:31:23 51°23.943 3°12.283 273.6 3.2 256 12.7
2010-11-10 10:32:22 51°23.929 3°12.198 275.5 3.3 260 12.5
2010-11-10 10:33:22 51°23.917 3°12.108 274.7 3.4 263 12.5
2010-11-10 10:34:23 51°23.906 3°12.017 276.5 3.4 261 13
2010-11-10 10:35:23 51°23.892 3°11.926 275.2 3.6 254 13.2
2010-11-10 10:36:22 51°23.878 3°11.837 269.4 3.6 252 13.4
2010-11-10 10:37:22 51°23.859 3°11.749 265.7 3.4 256 12.8
2010-11-10 10:38:23 51°23.835 3°11.661 257.3 3.6 244 13.8
2010-11-10 10:39:22 51°23.812 3°11.575 260 3.4 250 11.8
2010-11-10 10:40:22 51°23.788 3°11.486 260.7 3.6 251 13.2
2010-11-10 10:41:22 51°23.768 3°11.394 264.1 3.6 257 12.9
2010-11-10 10:42:23 51°23.749 3°11.3 263.9 3.6 255 13.5
2010-11-10 10:43:22 51°23.725 3°11.21 261.3 3.7 251 13.3
2010-11-10 10:44:22 51°23.704 3°11.119 268.4 3.6 249 13.6
2010-11-10 10:45:22 51°23.689 3°11.034 272.2 3.1 251 13
2010-11-10 10:46:22 51°23.673 3°10.952 272.6 3.2 255 13.5
2010-11-10 10:47:23 51°23.66 3°10.867 277.6 3.3 262 13.5
2010-11-10 10:48:22 51°23.652 3°10.782 287.8 3.3 265 13.8
2010-11-10 10:49:23 51°23.642 3°10.709 292.6 2.5 254 14
2010-11-10 10:50:22 51°23.629 3°10.658 294.9 1.9 242 13.1
2010-11-10 10:51:22 51°23.611 3°10.617 286.7 1.5 239 13
2010-11-10 10:52:22 51°23.59 3°10.582 279.6 2.3 215 13.9
2010-11-10 10:53:22 51°23.57 3°10.544 277.4 2 244 13.6
2010-11-10 10:54:22 51°23.558 3°10.485 294.4 2.6 263 14.1
2010-11-10 10:55:23 51°23.568 3°10.361 299.2 7 286 14
2010-11-10 10:56:22 51°23.623 3°10.175 323.8 7.9 313 13.8
2010-11-10 10:57:23 51°23.741 3°9.987 323.1 10.7 317 -999
2010-11-10 10:58:22 51°23.878 3°9.76 312.5 12.6 304 15.5
2010-11-10 10:59:23 51°23.981 3°9.455 303 13 298 17.4
2010-11-10 11:00:23 51°24.077 3°9.15 302 12.6 295 18.5
2010-11-10 11:01:23 51°24.174 3°8.846 302.7 11.5 299 17.4
2010-11-10 11:02:22 51°24.226 3°8.673 303.7 4.6 290 17.2
2010-11-10 11:03:22 51°24.235 3°8.587 301.4 2.1 258 15.8
2010-11-10 11:04:23 51°24.224 3°8.545 295.6 1.6 241 17.7
2010-11-10 11:05:22 51°24.212 3°8.511 295 1.4 246 17.4
2010-11-10 11:06:22 51°24.204 3°8.471 300.5 1.7 253 17.8
2010-11-10 11:07:23 51°24.197 3°8.429 303 1.5 262 18.4
2010-11-10 11:08:22 51°24.192 3°8.388 307.1 1.5 273 18.1
2010-11-10 11:09:23 51°24.192 3°8.344 310.7 1.7 260 17.8
2010-11-10 11:10:22 51°24.19 3°8.303 316 1.5 266 18.3
2010-11-10 11:11:23 51°24.188 3°8.262 317.3 1.4 268 18.8
2010-11-10 11:12:22 51°24.184 3°8.229 320.3 1.2 267 18
2010-11-10 11:13:23 51°24.189 3°8.188 328.8 1.7 290 18.5
2010-11-10 11:14:22 51°24.211 3°8.149 336.8 2.1 324 17.6
2010-11-10 11:15:22 51°24.245 3°8.113 342 2.5 334 15.5
2010-11-10 11:16:23 51°24.273 3°8.085 339.9 1.2 314 14.7
2010-11-10 11:17:22 51°24.282 3°8.064 334.7 1 281 14.6
2010-11-10 11:18:23 51°24.281 3°8.039 330.7 1 258 14.2
2010-11-10 11:19:22 51°24.271 3°8.009 321.4 1.3 243 14.9
2010-11-10 11:20:22 51°24.268 3°7.97 321.5 1.8 276 15
2010-11-10 11:21:22 51°24.281 3°7.933 338.9 1.2 308 13.4
2010-11-10 11:22:23 51°24.298 3°7.908 350.2 1.3 323 13.6
2010-11-10 11:23:22 51°24.315 3°7.893 348.6 1.3 346 14.1
2010-11-10 11:24:22 51°24.337 3°7.867 343.5 1.6 312 13.7
2010-11-10 11:25:22 51°24.358 3°7.839 341.7 1.8 328 12.4
2010-11-10 11:26:22 51°24.383 3°7.81 343.5 2 331 12.8
2010-11-10 11:27:23 51°24.412 3°7.778 340.4 2.1 316 12.4
2010-11-10 11:28:22 51°24.435 3°7.743 337.2 1.9 306 12.3
2010-11-10 11:29:22 51°24.453 3°7.709 338.7 1.6 307 11.9
2010-11-10 11:30:22 51°24.465 3°7.674 335.4 1.4 293 11.5
2010-11-10 11:31:22 51°24.476 3°7.641 340.5 1.8 299 11.8
2010-11-10 11:32:22 51°24.494 3°7.605 337.9 1.5 329 11.9
2010-11-10 11:33:23 51°24.512 3°7.569 339.3 1.5 302 11.3
2010-11-10 11:34:23 51°24.53 3°7.535 341.2 1.6 305 11.5
2010-11-10 11:35:22 51°24.54 3°7.505 337.1 1.5 294 11.6
2010-11-10 11:36:22 51°24.549 3°7.472 338.1 1.2 287 11.8
2010-11-10 11:37:22 51°24.561 3°7.447 341.3 0.9 304 10.6
2010-11-10 11:38:23 51°24.57 3°7.427 339.1 0.8 301 11.5
2010-11-10 11:39:22 51°24.609 3°7.389 340.3 5.3 337 11.7
2010-11-10 11:40:23 51°24.71 3°7.325 346.2 6.9 341 11.1
2010-11-10 11:41:22 51°24.812 3°7.288 350.1 6.8 345 11.6
2010-11-10 11:42:22 51°24.929 3°7.242 352.4 7.5 350 10.2
2010-11-10 11:43:22 51°25.044 3°7.224 358.6 6.7 358 9.9
2010-11-10 11:44:22 51°25.154 3°7.266 15.5 7.3 21 9.6
2010-11-10 11:45:22 51°25.263 3°7.33 16.1 6.8 21 9.4
2010-11-10 11:46:22 51°25.372 3°7.393 15.8 7.3 18 10.6
2010-11-10 11:47:23 51°25.486 3°7.477 26.2 8 35 9.4
2010-11-10 11:48:22 51°25.585 3°7.603 32.1 8.2 43 10.7
2010-11-10 11:49:23 51°25.702 3°7.744 28.9 9.2 40 10.5
2010-11-10 11:50:22 51°25.825 3°7.882 30.9 9.2 32 9.9
2010-11-10 11:51:23 51°25.951 3°8.022 30.8 9.5 34 9.7
2010-11-10 11:52:23 51°26.061 3°8.204 44.7 9.7 51 9.4
2010-11-10 11:53:22 51°26.15 3°8.413 48 10.1 60 10.6
2010-11-10 11:54:23 51°26.23 3°8.591 45.5 5.6 60 10.8
2010-11-10 11:55:22 51°26.259 3°8.688 45.4 3.3 72 10.7
2010-11-10 11:56:22 51°26.269 3°8.762 44 3.2 89 11.3
2010-11-10 11:57:22 51°26.274 3°8.823 45.9 2.1 82 10.1
2010-11-10 11:58:22 51°26.278 3°8.886 44 3.5 70 10.2
2010-11-10 11:59:22 51°26.348 3°9.041 43.5 9.7 50 9.9
2010-11-10 12:00:22 51°26.469 3°9.265 42.3 11.5 49 10.4
2010-11-10 12:01:22 51°26.595 3°9.501 45.7 12 50 11.6
2010-11-10 12:02:22 51°26.7 3°9.76 56.2 11.9 62 10.7
2010-11-10 12:03:22 51°26.775 3°10.058 62.3 12.1 68 9.9
2010-11-10 12:04:22 51°26.844 3°10.359 62.9 12 70 10.2
2010-11-10 12:05:22 51°26.919 3°10.654 61 11.7 64 9.4
2010-11-10 12:06:22 51°26.991 3°10.955 61.7 12.2 68 9.4
2010-11-10 12:07:22 51°27.069 3°11.254 59.4 12.2 64 10
2010-11-10 12:08:22 51°27.152 3°11.547 60 12 63 9.3
2010-11-10 12:09:22 51°27.231 3°11.845 60.8 12 66 8.5
2010-11-10 12:10:23 51°27.311 3°12.149 57.9 11.9 65 7.9
2010-11-10 12:11:25 51°27.338 3°12.488 81.7 13.4 90 8.1
2010-11-10 12:12:24 51°27.337 3°12.826 84.5 12.9 90 9.3
2010-11-10 12:13:23 51°27.321 3°13.165 84.8 13.3 96 9
2010-11-10 12:14:22 51°27.316 3°13.498 80.7 11.9 87 8.2
2010-11-10 12:15:22 51°27.308 3°13.836 83.3 13 93 8.8
2010-11-10 12:16:22 51°27.282 3°14.117 85 7.8 103 9.3
2010-11-10 12:17:22 51°27.272 3°14.238 63.9 2 100 8.1
2010-11-10 12:18:22 51°27.247 3°14.28 64.3 2.8 143 9.3
2010-11-10 12:19:22 51°27.218 3°14.31 64.4 2.7 152 9.4
2010-11-10 12:20:22 51°27.188 3°14.333 68.3 2.5 154 9.4
2010-11-10 12:21:23 51°27.154 3°14.354 71.4 2.4 159 9.2
2010-11-10 12:22:22 51°27.119 3°14.37 77.1 2.3 165 8.9
2010-11-10 12:23:22 51°27.083 3°14.385 80.3 1.8 161 8.8
2010-11-10 12:24:22 51°27.048 3°14.401 83.1 3 168 9.4
2010-11-10 12:25:22 51°27.014 3°14.418 82.9 2.1 165 8.9
2010-11-10 12:26:22 51°26.979 3°14.433 76.6 1.8 166 8.9
2010-11-10 12:27:22 51°26.949 3°14.463 60.6 2.2 111 9.2
2010-11-10 12:28:22 51°26.953 3°14.511 8.8 1.3 48 9.5
2010-11-10 12:29:22 51°26.998 3°14.494 339.6 6.2 335 8.9
2010-11-10 12:30:22 51°27.112 3°14.409 338.1 8.3 335 9
2010-11-10 12:31:22 51°27.249 3°14.298 323.7 10.5 311 9.6
2010-11-10 12:32:22 51°27.352 3°14.07 309.7 10.5 305 9
2010-11-10 12:33:22 51°27.448 3°13.839 309.3 10.5 305 9.2
2010-11-10 12:34:23 51°27.549 3°13.598 310.5 10.7 305 9.7
2010-11-10 12:35:22 51°27.647 3°13.37 309.7 10.4 302 9.4
2010-11-10 12:36:22 51°27.747 3°13.138 310 10.6 306 9
2010-11-10 12:37:22 51°27.848 3°12.904 310.3 10.4 305 9.6
2010-11-10 12:38:22 51°27.948 3°12.672 310 10.6 304 10
2010-11-10 12:39:22 51°28.046 3°12.44 310.7 10.2 306 9.6
2010-11-10 12:40:22 51°28.141 3°12.207 309.8 10.5 305 9.8
2010-11-10 12:41:22 51°28.244 3°11.973 310.9 10.4 305 10.3
2010-11-10 12:42:22 51°28.348 3°11.735 310.6 10.7 302 10.7
2010-11-10 12:43:22 51°28.452 3°11.499 310.5 10.9 305 12.2
2010-11-10 12:44:22 51°28.559 3°11.262 310 11.3 306 12.9
2010-11-10 12:45:22 51°28.664 3°11.024 310.6 10.6 305 13.2
2010-11-10 12:46:22 51°28.771 3°10.787 310.3 10.8 307 13.3
2010-11-10 12:47:23 51°28.875 3°10.548 308.6 10.4 303 15.2
2010-11-10 12:48:22 51°28.975 3°10.316 310.6 10.7 305 14.3
2010-11-10 12:49:22 51°29.076 3°10.081 310.3 10.3 305 15.6
2010-11-10 12:50:23 51°29.176 3°9.852 311.4 10.3 305 17.8
2010-11-10 12:51:22 51°29.273 3°9.622 310.6 10.7 306 17.2
2010-11-10 12:52:22 51°29.382 3°9.382 309.9 10.7 305 16.1
2010-11-10 12:53:22 51°29.488 3°9.143 310.6 10.8 306 16.6
2010-11-10 12:54:22 51°29.594 3°8.903 310 11.1 306 17.5
2010-11-10 12:55:22 51°29.704 3°8.659 309.6 11.3 302 18
2010-11-10 12:56:22 51°29.814 3°8.424 313.1 11 310 17.6
2010-11-10 12:57:22 51°29.937 3°8.205 317 11 312 19.2
2010-11-10 12:58:22 51°30.059 3°7.991 315.3 10.7 311 21
2010-11-10 12:59:22 51°30.181 3°7.776 315.8 11 312 21.3
2010-11-10 13:00:22 51°30.31 3°7.55 316 11.4 313 24.3
2010-11-10 13:01:22 51°30.439 3°7.324 315.3 11.7 312 25.9
2010-11-10 13:02:22 51°30.573 3°7.093 315 11.7 312 25.8
2010-11-10 13:03:23 51°30.7 3°6.87 314.2 10.7 313 24.8
2010-11-10 13:04:22 51°30.823 3°6.646 315.3 11.8 312 25.4
2010-11-10 13:05:23 51°30.955 3°6.409 314.8 11.7 312 24.1
2010-11-10 13:06:23 51°31.084 3°6.182 314.5 11 313 25.2
2010-11-10 13:07:22 51°31.21 3°5.956 315.8 11.6 312 26.2
2010-11-10 13:08:22 51°31.341 3°5.726 315.3 11.9 313 28
2010-11-10 13:09:23 51°31.478 3°5.494 314.9 11.3 314 -999
2010-11-10 13:10:22 51°31.605 3°5.278 314.8 11.4 310 30.6
2010-11-10 13:11:22 51°31.731 3°5.058 313.8 10.5 313 29.9
2010-11-10 13:12:23 51°31.857 3°4.851 315.6 11.2 315 31.4
2010-11-10 13:13:22 51°31.981 3°4.644 313.9 11.1 314 29.2
2010-11-10 13:14:22 51°32.108 3°4.433 315.9 11 313 29.8
2010-11-10 13:15:22 51°32.238 3°4.223 315.7 11.2 315 31.4
2010-11-10 13:16:24 51°32.369 3°4.013 316.5 10.4 313 32.2
2010-11-10 13:17:23 51°32.501 3°3.81 316.9 11.5 317 33
2010-11-10 13:18:23 51°32.633 3°3.6 314 10.4 318 29.6
2010-11-10 13:19:22 51°32.755 3°3.397 315 11.2 312 26.7
2010-11-10 13:20:23 51°32.885 3°3.182 313.8 11 311 20.1
2010-11-10 13:21:24 51°33.006 3°2.976 316 10.5 316 -999
2010-11-10 13:22:24 51°33.127 3°2.775 316.3 10.5 313 23.9
2010-11-10 13:23:24 51°33.252 3°2.571 315.1 10.5 316 27.3
2010-11-10 13:24:24 51°33.373 3°2.371 315.2 10.4 315 4.8
2010-11-10 13:25:24 51°33.506 3°2.165 315.8 11.2 317 34.3
2010-11-10 13:26:22 51°33.633 3°1.956 315 10.9 313 35.4
2010-11-10 13:27:22 51°33.763 3°1.747 316 11.1 314 36.7
2010-11-10 13:28:23 51°33.899 3°1.537 316.5 11 318 28.2
2010-11-10 13:29:23 51°34.021 3°1.335 316.3 10.8 314 19.4
2010-11-10 13:30:22 51°34.145 3°1.13 316.2 10.6 314 18.9
2010-11-10 13:31:22 51°34.256 3°0.909 308.2 11 308 17.8
2010-11-10 13:32:22 51°34.365 3°0.676 307.8 11.2 304 17.4
2010-11-10 13:33:23 51°34.476 3°0.443 308.4 10.5 307 20.6
2010-11-10 13:34:22 51°34.554 3°0.276 311 4.2 314 20
2010-11-10 13:35:22 51°34.589 3°0.268 2.4 1.6 63 22.6
2010-11-10 13:36:22 51°34.579 3°0.306 48.9 1.6 135 21.8
2010-11-10 13:37:22 51°34.559 3°0.338 76 1.1 128 21.7
2010-11-10 13:38:22 51°34.538 3°0.371 81.2 1.7 130 21.8
2010-11-10 13:39:22 51°34.519 3°0.406 75.9 1.3 110 20.9
2010-11-10 13:40:22 51°34.499 3°0.439 71 1.9 140 20.3
2010-11-10 13:41:22 51°34.481 3°0.474 68.5 1.7 132 20
2010-11-10 13:42:22 51°34.462 3°0.508 75.8 1.5 127 19.9
2010-11-10 13:43:22 51°34.441 3°0.54 78.9 1.4 127 19.1
2010-11-10 13:44:22 51°34.42 3°0.57 85.7 2.5 151 19.4
2010-11-10 13:45:22 51°34.397 3°0.6 86.9 2.1 146 19.6
2010-11-10 13:46:22 51°34.377 3°0.633 82.4 2 140 17.7
2010-11-10 13:47:22 51°34.356 3°0.668 87 1.6 135 18.3
2010-11-10 13:48:22 51°34.336 3°0.7 85 2.1 141 16.7
2010-11-10 13:49:22 51°34.316 3°0.738 88 2.5 126 16.3
2010-11-10 13:50:22 51°34.28 3°0.825 140.9 4.9 145 5.2
2010-11-10 13:51:22 51°34.204 3°0.837 219.1 5.2 214 17.4
2010-11-10 13:52:22 51°34.137 3°0.68 241.8 9.2 233 17
2010-11-10 13:53:22 51°34.018 3°0.46 233.4 12 237 16.3
2010-11-10 13:54:22 51°33.885 3°0.228 234.7 12.3 229 16.4
2010-11-10 13:55:22 51°33.761 2°59.981 238.7 11.5 230 16.2
2010-11-10 13:56:22 51°33.626 2°59.745 235.1 12.7 232 16.8
2010-11-10 13:57:22 51°33.5 2°59.499 236 11.8 233 16.5
2010-11-10 13:58:22 51°33.38 2°59.251 237.1 11.6 228 18.9
2010-11-10 13:59:22 51°33.262 2°58.995 236.7 11.6 236 18.7
2010-11-10 14:00:22 51°33.142 2°58.745 229.5 12.3 233 18.1
2010-11-10 14:01:22 51°33.018 2°58.499 234.3 11.4 236 18.9
2010-11-10 14:02:22 51°32.896 2°58.254 234.2 11.6 237 17.6
2010-11-10 14:03:22 51°32.778 2°58.005 237.2 11.5 237 20.2
2010-11-10 14:04:22 51°32.663 2°57.754 240 11.7 229 22.2
2010-11-10 14:05:22 51°32.555 2°57.5 239.6 11.6 232 21.2
2010-11-10 14:06:22 51°32.505 2°57.22 279.5 11.4 283 23.3
2010-11-10 14:07:22 51°32.561 2°56.931 289.7 11.1 291 21.9
2010-11-10 14:08:23 51°32.66 2°56.679 305.1 10.4 312 -999
2010-11-10 14:09:24 51°32.802 2°56.489 317.9 10.6 320 26.6
2010-11-10 14:10:24 51°32.943 2°56.293 313.3 11.1 316 -999
2010-11-10 14:11:25 51°33.079 2°56.096 314.7 11.5 317 28
2010-11-10 14:12:24 51°33.215 2°55.886 307.1 11.6 305 26.3
2010-11-10 14:13:23 51°33.285 2°55.617 283.9 11 288 30.4
2010-11-10 14:14:22 51°33.28 2°55.329 254.8 11 255 28.8
2010-11-10 14:15:22 51°33.144 2°55.127 206.4 12.4 199 28.5
2010-11-10 14:16:22 51°32.952 2°55.2 147.5 13.1 137 27.1
2010-11-10 14:17:22 51°32.81 2°55.475 129 13 133 29.4
2010-11-10 14:18:22 51°32.648 2°55.729 140.2 13.1 143 27.8
2010-11-10 14:19:22 51°32.48 2°55.963 145.2 13.9 134 25.2
2010-11-10 14:20:22 51°32.321 2°56.184 140.7 10.3 144 23.9
2010-11-10 14:21:22 51°32.248 2°56.33 127.3 5.2 117 23.6
2010-11-10 14:22:22 51°32.223 2°56.436 110.6 3.6 112 24.1
2010-11-10 14:23:22 51°32.214 2°56.517 99.2 2.9 83 22.6
2010-11-10 14:24:22 51°32.207 2°56.58 89.4 2.3 110 23.5
2010-11-10 14:25:22 51°32.201 2°56.625 88.3 1.7 111 23.8
2010-11-10 14:26:22 51°32.195 2°56.663 85.2 1.6 111 22.7
2010-11-10 14:27:22 51°32.191 2°56.699 82.4 1.5 115 22
2010-11-10 14:28:22 51°32.187 2°56.736 82.8 1.4 92 20.9
2010-11-10 14:29:22 51°32.181 2°56.772 84.3 1.3 102 18.8
2010-11-10 14:30:22 51°32.174 2°56.815 95.1 2.5 107 21.8
2010-11-10 14:31:22 51°32.151 2°56.916 137.3 4.7 138 23.3
2010-11-10 14:32:22 51°32.071 2°56.944 194.7 7.1 180 21.8
2010-11-10 14:33:22 51°31.915 2°56.91 195.3 11.2 189 20
2010-11-10 14:34:22 51°31.736 2°56.799 208.2 10.8 208 19.8
2010-11-10 14:35:22 51°31.571 2°56.649 210.8 11.1 210 21.5
2010-11-10 14:36:22 51°31.386 2°56.559 200 11.4 190 28
2010-11-10 14:37:23 51°31.188 2°56.503 197.7 12.2 195 35.4
2010-11-10 14:38:22 51°31.002 2°56.412 200.6 12.7 193 36
2010-11-10 14:39:22 51°30.808 2°56.334 197.6 11.9 200 35.6
2010-11-10 14:40:22 51°30.615 2°56.253 196.1 13.1 192 35.7
2010-11-10 14:41:22 51°30.429 2°56.156 204.5 11.4 189 33.9
2010-11-10 14:42:22 51°30.245 2°56.061 205.3 11.4 200 34.9
2010-11-10 14:43:22 51°30.058 2°55.977 197.8 12.5 194 34.8
2010-11-10 14:44:22 51°29.875 2°55.892 200.9 10.9 200 32.3
2010-11-10 14:45:22 51°29.689 2°55.813 198 13 197 32.1
2010-11-10 14:46:22 51°29.501 2°55.726 192.7 12.1 196 30.6
2010-11-10 14:47:22 51°29.313 2°55.638 199.2 11.6 204 30
2010-11-10 14:48:22 51°29.135 2°55.527 206.8 11.1 205 28.3
2010-11-10 14:49:22 51°28.949 2°55.448 202.1 11.2 202 26.4
2010-11-10 14:50:22 51°28.765 2°55.35 200.3 11.6 202 25.5
2010-11-10 14:51:22 51°28.581 2°55.24 200.9 12.9 201 26.1
2010-11-10 14:52:23 51°28.387 2°55.151 199.8 10.7 186 24.4
2010-11-10 14:53:22 51°28.202 2°55.07 203.6 12.1 196 27
2010-11-10 14:54:22 51°28.019 2°54.963 201.1 11.9 203 28
2010-11-10 14:55:23 51°27.833 2°54.862 199.7 11.8 193 30
2010-11-10 14:56:22 51°27.651 2°54.76 199.7 12.1 196 32
2010-11-10 14:57:22 51°27.461 2°54.669 192.1 12.7 186 32.8
2010-11-10 14:58:22 51°27.275 2°54.574 204.8 11.8 192 31.7
2010-11-10 14:59:22 51°27.088 2°54.496 199.6 10.7 191 31.4
2010-11-10 15:00:22 51°26.901 2°54.451 196.3 10.5 201 27.8
2010-11-10 15:01:22 51°26.714 2°54.395 196 12.1 184 28
2010-11-10 15:02:23 51°26.524 2°54.338 199.9 10.5 183 29.9
2010-11-10 15:03:22 51°26.336 2°54.288 193.9 12.4 191 28.4
2010-11-10 15:04:22 51°26.148 2°54.226 200 11.8 201 27
2010-11-10 15:05:22 51°25.961 2°54.163 198.2 11.2 180 25.6
2010-11-10 15:06:22 51°25.766 2°54.125 191.2 12.1 191 24.1
2010-11-10 15:07:22 51°25.583 2°54.045 201.4 11.1 207 23.8
2010-11-10 15:08:22 51°25.398 2°53.955 197.7 11.9 203 22.9
2010-11-10 15:09:22 51°25.212 2°53.863 196.2 11.8 199 23.4
2010-11-10 15:10:22 51°25.025 2°53.781 195.5 11.5 196 23.2
2010-11-10 15:11:22 51°24.836 2°53.695 198.2 12.2 199 22
2010-11-10 15:12:22 51°24.646 2°53.628 195.6 10.7 178 20.7
2010-11-10 15:13:22 51°24.453 2°53.573 187.3 12 187 20.7
2010-11-10 15:14:22 51°24.26 2°53.516 196.3 12.1 184 20.9
2010-11-10 15:15:22 51°24.067 2°53.451 199.7 11.6 194 23.8
2010-11-10 15:16:22 51°23.879 2°53.355 199.5 12.6 202 24.4
2010-11-10 15:17:22 51°23.691 2°53.284 195.3 12.4 196 24.4
2010-11-10 15:18:22 51°23.5 2°53.221 193.8 11 191 24.2
2010-11-10 15:19:22 51°23.311 2°53.169 190.2 11 192 22
2010-11-10 15:20:22 51°23.12 2°53.11 195.3 13.1 190 25
2010-11-10 15:21:22 51°22.928 2°53.055 197.6 11.5 193 25.6
2010-11-10 15:22:22 51°22.738 2°53.005 192.5 11.6 189 25.7
2010-11-10 15:23:22 51°22.555 2°52.923 203.9 11.2 202 25.7
2010-11-10 15:24:22 51°22.367 2°52.868 192.7 10.8 190 26.7
2010-11-10 15:25:22 51°22.178 2°52.83 190.5 11.9 188 27.5
2010-11-10 15:26:22 51°21.99 2°52.786 192 11.5 186 26.1
2010-11-10 15:27:22 51°21.802 2°52.727 198.1 10.8 192 23.8
2010-11-10 15:28:22 51°21.613 2°52.673 196.2 11.7 198 22.5
2010-11-10 15:29:22 51°21.419 2°52.661 188.1 12.1 178 20.1
2010-11-10 15:30:22 51°21.224 2°52.628 195.7 11.9 195 19.2
2010-11-10 15:31:22 51°21.04 2°52.544 201.6 12.1 206 19.3
2010-11-10 15:32:22 51°20.857 2°52.472 197.1 10.8 193 18.3
2010-11-10 15:33:22 51°20.665 2°52.436 186.8 11.7 189 17.3
2010-11-10 15:34:22 51°20.468 2°52.426 182.6 12.3 180 19
2010-11-10 15:35:22 51°20.27 2°52.428 181.1 11.8 186 19.2
2010-11-10 15:36:22 51°20.075 2°52.416 186.2 11.4 191 19.5
2010-11-10 15:37:22 51°19.881 2°52.423 181.5 11.5 181 19
2010-11-10 15:38:22 51°19.688 2°52.402 187.5 11.1 181 18.7
2010-11-10 15:39:22 51°19.493 2°52.389 181.9 11.6 186 18.7
2010-11-10 15:40:22 51°19.294 2°52.4 184.7 11.8 184 18.7
2010-11-10 15:41:22 51°19.103 2°52.364 192.4 11.1 190 16.9
2010-11-10 15:42:22 51°18.908 2°52.313 188.9 12.3 191 16.5
2010-11-10 15:43:22 51°18.71 2°52.297 176.8 12.6 177 15.4
2010-11-10 15:44:22 51°18.513 2°52.33 173.1 12.3 171 14.6
2010-11-10 15:45:23 51°18.311 2°52.351 179.1 11 170 14
2010-11-10 15:46:22 51°18.121 2°52.321 193.3 11.2 190 13.8
2010-11-10 15:47:22 51°17.937 2°52.253 194.2 11.5 192 14.2
2010-11-10 15:48:22 51°17.75 2°52.189 191.9 11.3 189 14.4
2010-11-10 15:49:22 51°17.558 2°52.146 182.2 11.9 179 14
2010-11-10 15:50:22 51°17.356 2°52.171 174 12.4 173 14.8
2010-11-10 15:51:22 51°17.165 2°52.263 162.5 11.7 162 13.7
2010-11-10 15:52:22 51°16.976 2°52.4 156.6 12.6 159 13.1
2010-11-10 15:53:22 51°16.79 2°52.539 159.2 12.5 153 13.4
2010-11-10 15:54:22 51°16.604 2°52.693 154 13 148 14.5
2010-11-10 15:55:22 51°16.425 2°52.869 152.5 11.6 147 14.9
2010-11-10 15:56:23 51°16.252 2°53.07 145.6 11.7 150 14.5
2010-11-10 15:57:23 51°16.071 2°53.235 158.8 10.5 158 -999
2010-11-10 15:58:22 51°15.888 2°53.388 149.1 12 147 14.5
2010-11-10 15:59:22 51°15.71 2°53.579 149.6 13.9 142 14.7
2010-11-10 16:00:22 51°15.54 2°53.787 151 13.5 144 14
2010-11-10 16:01:22 51°15.367 2°53.994 154 12.5 148 13.6
2010-11-10 16:02:22 51°15.194 2°54.203 145.8 13 144 13.5
2010-11-10 16:03:22 51°15.053 2°54.384 142.7 10.5 138 13.7
2010-11-10 16:04:22 51°14.929 2°54.566 145.2 10.4 133 13.6
2010-11-10 16:05:22 51°14.802 2°54.738 145.6 9.7 138 14.7
2010-11-10 16:06:22 51°14.673 2°54.896 149.6 9.5 145 14.7
2010-11-10 16:07:23 51°14.518 2°55.042 159 11.5 159 -999
2010-11-10 16:08:24 51°14.341 2°55.182 146.4 11.5 149 12.8
2010-11-10 16:09:24 51°14.19 2°55.355 144.3 9.6 150 -999
2010-11-10 16:10:25 51°14.062 2°55.452 153.6 7.9 155 14
2010-11-10 16:11:25 51°13.951 2°55.536 152.6 7.2 154 -999
2010-11-10 16:12:25 51°13.841 2°55.619 153.7 7.3 154 13.7
2010-11-10 16:13:25 51°13.756 2°55.721 131.4 5.7 132 13.3
2010-11-10 16:14:25 51°13.703 2°55.827 125.7 4.8 127 14
2010-11-10 16:15:24 51°13.669 2°55.917 110.9 3.7 112 12.5